Data for 07/16/2015

Time Sea-Level Adjusted Pressure Absolute Pressure Temperature Relative Humidity Dew Point   
(mb) (inHg) (mb) (inHg) (C) (F) (%) (C) (F)
00:05 1019 30.09 848 25.04 12.3 54.1 69 6.8 44.2
00:10 1019 30.09 848 25.04 12.1 53.9 69 6.7 44
00:15 1019 30.09 848 25.04 12.2 53.9 69 6.6 43.9
00:20 1019 30.09 848 25.04 12.3 54.1 68 6.6 43.9
00:25 1019 30.09 848 25.04 12.3 54.1 68 6.6 43.9
00:30 1019 30.09 848 25.04 12.2 54 68 6.6 43.8
00:35 1019 30.09 848 25.04 12 53.6 71 6.8 44.3
00:40 1019 30.09 848 25.04 11.9 53.4 72 6.9 44.5
00:45 1018 30.06 848 25.04 11.8 53.2 71 6.7 44.1
00:50 1018 30.06 848 25.04 11.6 52.9 72 6.8 44.2
00:55 1018 30.06 848 25.04 11.7 53 72 6.9 44.4
01:00 1018 30.06 848 25.04 11.9 53.3 72 6.9 44.5
01:05 1018 30.06 848 25.04 11.9 53.4 71 6.8 44.3
01:10 1018 30.06 847 25.01 11.9 53.4 69 6.5 43.7
01:15 1018 30.06 847 25.01 11.6 52.9 70 6.4 43.5
01:20 1018 30.06 847 25.01 11.2 52.2 73 6.6 43.8
01:25 1018 30.06 847 25.01 10.9 51.5 72 6.1 43
01:30 1018 30.06 847 25.01 11.2 52.1 71 6.1 43
01:35 1018 30.06 847 25.01 11.3 52.3 70 6 42.9
01:40 1018 30.06 847 25.01 11.5 52.7 69 6 42.7
01:45 1018 30.06 847 25.01 11.7 53.1 68 6.1 43
01:50 1018 30.06 847 25.01 11.9 53.4 67 6.1 42.9
01:55 1018 30.06 847 25.01 11.7 53.1 68 6 42.8
02:00 1018 30.06 847 25.01 11.7 53 68 6 42.9
02:05 1018 30.06 847 25.01 11.6 52.8 69 6.1 42.9
02:10 1018 30.06 847 25.01 11.4 52.5 68 5.8 42.4
02:15 1018 30.06 847 25.01 11.4 52.5 69 6 42.8
02:20 1018 30.06 847 25.01 11.3 52.4 69 5.9 42.7
02:25 1018 30.06 847 25.01 11.9 53.3 67 6 42.9
02:30 1018 30.06 847 25.01 11.9 53.4 69 6.4 43.5
02:35 1018 30.06 847 25.01 11.7 53 71 6.6 43.9
02:40 1018 30.06 847 25.01 11.6 52.8 71 6.5 43.7
02:45 1018 30.06 847 25.01 11.4 52.5 72 6.5 43.7
02:50 1018 30.06 847 25.01 11.2 52.1 71 6.1 43
02:55 1018 30.06 847 25.01 11 51.8 72 6.1 43
03:00 1018 30.06 847 25.01 11 51.8 70 5.9 42.6
03:05 1018 30.06 847 25.01 11.2 52.1 70 5.9 42.7
03:10 1018 30.06 847 25.01 11.3 52.3 69 5.8 42.5
03:15 1018 30.06 847 25.01 11.5 52.7 68 5.8 42.5
03:20 1018 30.06 847 25.01 11.8 53.2 67 5.9 42.6
03:25 1018 30.06 847 25.01 11.8 53.2 67 5.9 42.5
03:30 1018 30.06 847 25.01 11.7 53.1 67 5.8 42.4
03:35 1018 30.06 847 25.01 11.6 53 67 5.8 42.4
03:40 1018 30.06 847 25.01 11.2 52.2 69 5.8 42.4
03:45 1018 30.06 847 25.01 10.8 51.5 70 5.7 42.2
03:50 1018 30.06 847 25.01 10.7 51.3 70 5.5 41.9
03:55 1018 30.06 847 25.01 11 51.7 69 5.5 41.8
04:00 1018 30.06 847 25.01 10.8 51.5 71 5.8 42.4
04:05 1018 30.06 847 25.01 10.6 51.1 72 5.7 42.3
04:10 1018 30.06 847 25.01 10.5 50.8 72 5.7 42.3
04:15 1018 30.06 847 25.01 10.3 50.5 73 5.6 42
04:20 1018 30.06 847 25.01 10.1 50.2 73 5.6 42
04:25 1018 30.06 847 25.01 10 50.1 73 5.5 41.9
04:30 1018 30.06 847 25.01 10.1 50.2 73 5.5 41.9
04:35 1018 30.06 847 25.01 10.2 50.4 72 5.4 41.8
04:40 1018 30.06 847 25.01 10.5 50.8 71 5.4 41.7
04:45 1018 30.06 847 25.01 10.8 51.4 70 5.5 41.9
04:50 1018 30.06 847 25.01 10.8 51.4 72 5.9 42.6
04:55 1018 30.06 847 25.01 10.4 50.8 73 5.8 42.4
05:00 1018 30.06 847 25.01 10.3 50.5 73 5.6 42.2
05:05 1018 30.06 847 25.01 10.2 50.4 73 5.5 42
05:10 1018 30.06 847 25.01 10.2 50.4 73 5.6 42
05:15 1018 30.06 847 25.01 10.3 50.6 73 5.8 42.4
05:20 1018 30.06 847 25.01 10.3 50.5 74 5.8 42.5
05:25 1018 30.06 847 25.01 10.4 50.7 73 5.7 42.3
05:30 1018 30.06 847 25.01 10.4 50.7 73 5.8 42.5
05:35 1018 30.06 847 25.01 10.3 50.6 74 5.8 42.5
05:40 1018 30.06 847 25.01 10.6 51 73 5.9 42.5
05:45 1018 30.06 847 25.01 11 51.7 70 5.8 42.4
05:50 1018 30.06 847 25.01 11.3 52.4 69 5.9 42.7
05:55 1018 30.06 847 25.01 11.4 52.5 69 6 42.7
06:00 1018 30.06 847 25.01 11.5 52.8 69 6 42.8
06:05 1018 30.06 847 25.01 11.6 52.9 69 6.2 43.1
06:10 1018 30.06 847 25.01 11.6 52.9 69 6.1 43.1
06:15 1018 30.06 847 25.01 11.8 53.3 68 6.2 43.2
06:20 1018 30.06 847 25.01 11.9 53.4 68 6.3 43.4
06:25 1018 30.06 847 25.01 11.9 53.4 69 6.5 43.7
06:30 1018 30.06 847 25.01 11.8 53.2 69 6.4 43.5
06:35 1018 30.06 847 25.01 11.9 53.4 70 6.6 44
06:40 1018 30.06 847 25.01 12.2 54 68 6.6 43.9
06:45 1018 30.06 847 25.01 12.8 55 66 6.6 43.8
06:50 1018 30.06 847 25.01 13.5 56.2 62 6.4 43.4
06:55 1018 30.06 847 25.01 13.9 56.9 61 6.5 43.8
07:00 1018 30.06 847 25.01 14.5 58.2 59 6.7 44
07:05 1018 30.06 847 25.01 14.8 58.6 59 7 44.5
07:10 1018 30.06 847 25.01 15.2 59.3 58 7 44.5
07:15 1018 30.06 847 25.01 15.6 60.1 56 6.8 44.3
07:20 1018 30.06 847 25.01 16.3 61.3 54 7 44.7
07:25 1018 30.06 847 25.01 16.4 61.4 55 7.4 45.3
07:30 1018 30.06 847 25.01 16.6 62 53 7 44.6
07:35 1018 30.06 847 25.01 17.1 62.7 52 7.4 45.3
07:40 1018 30.06 847 25.01 17.5 63.5 51 7.4 45.4
07:45 1018 30.06 847 25.01 17.8 64 49 7 44.6
07:50 1018 30.06 847 25.01 18.3 65 46 6.6 43.9
07:55 1018 30.06 847 25.01 18.6 65.5 47 7.1 44.7
08:00 1017 30.03 847 25.01 19 66.3 46 7.1 44.8
08:05 1017 30.03 847 25.01 19.3 66.7 44 7 44.7
08:10 1017 30.03 847 25.01 19.5 67 44 6.9 44.5
08:15 1017 30.03 847 25.01 19.8 67.6 43 7 44.7
08:20 1017 30.03 846 24.98 19.8 67.6 43 6.8 44.3
08:25 1017 30.03 846 24.98 19.3 66.7 44 6.9 44.5
08:30 1017 30.03 846 24.98 19 66.3 44 6.7 44.1
08:35 1017 30.03 846 24.98 19.3 66.7 44 6.8 44.2
08:40 1017 30.03 846 24.98 19.9 67.9 41 6.4 43.6
08:45 1017 30.03 846 24.98 20.1 68.3 42 6.8 44.3
08:50 1017 30.03 846 24.98 20.6 69.1 37 5.6 42.1
08:55 1017 30.03 846 24.98 21.3 70.3 38 6.6 43.9
09:00 1017 30.03 846 24.98 21.9 71.4 34 5.7 42.3
09:05 1017 30.03 846 24.98 21.8 71.3 37 6.5 43.7
09:10 1017 30.03 846 24.98 21.5 70.7 36 6.1 43
09:15 1017 30.03 846 24.98 21.7 71.1 35 6 42.7
09:20 1017 30.03 846 24.98 22.7 72.9 35 6.5 43.7
09:25 1017 30.03 846 24.98 23.5 74.3 34 6.9 44.3
09:30 1017 30.03 846 24.98 23.4 74.1 34 6.7 44.1
09:35 1017 30.03 846 24.98 23.2 73.7 33 6.3 43.4
09:40 1016 30 846 24.98 23.6 74.4 33 6.5 43.7
09:45 1016 30 846 24.98 24 75.2 35 7.9 46.3
09:50 1016 30 846 24.98 23.8 74.9 35 7.9 46.1
09:55 1016 30 846 24.98 23.7 74.7 37 8.3 47
10:00 1016 30 846 24.98 22.7 72.8 39 8.4 47.1
10:05 1016 30 846 24.98 22.7 72.9 38 8 46.5
10:10 1016 30 846 24.98 22.8 73.1 36 7.1 44.7
10:15 1016 30 846 24.98 22.7 72.9 35 6.7 44.1
10:20 1016 30 845 24.95 23.1 73.6 34 6.8 44.2
10:25 1016 30 845 24.95 23.2 73.8 34 6.8 44.3
10:30 1016 30 845 24.95 24 75.1 32 6.3 43.3
10:35 1016 30 845 24.95 24.2 75.6 32 6.9 44.5
10:40 1016 30 845 24.95 24 75.2 31 6.1 43
10:45 1016 30 845 24.95 24.5 76.1 24 2.6 36.6
10:50 1016 30 845 24.95 24.5 76.1 26 4.3 39.7
10:55 1016 30 845 24.95 24 75.2 27 3.8 38.9
11:00 1016 30 845 24.95 23.6 74.5 28 4.2 39.5
11:05 1016 30 845 24.95 23.6 74.6 27 3.7 38.7
11:10 1016 30 845 24.95 24.4 75.9 25 3.2 37.8
11:15 1016 30 845 24.95 24.9 76.7 25 3.5 38.3
11:20 1016 30 845 24.95 24.6 76.3 23 2.5 36.4
11:25 1016 30 845 24.95 24.3 75.7 23 2 35.5
11:30 1016 30 845 24.95 24.2 75.5 23 1.7 35.1
11:35 1015 29.97 845 24.95 24 75.1 23 1.8 35.3
11:40 1015 29.97 845 24.95 24.4 75.8 23 2 35.7
11:45 1015 29.97 845 24.95 24.7 76.5 24 3 37.3
11:50 1015 29.97 845 24.95 24.9 76.8 22 1.9 35.4
11:55 1015 29.97 845 24.95 24.7 76.5 22 1.8 35.2
12:00 1015 29.97 845 24.95 24.8 76.7 21 1.5 34.6
12:05 1015 29.97 844 24.92 24.9 76.8 21 1.2 34.2
12:10 1015 29.97 844 24.92 25.1 77.3 21 1.5 34.6
12:15 1015 29.97 844 24.92 24.8 76.7 21 1.6 34.9
12:20 1015 29.97 844 24.92 24.8 76.6 22 1.9 35.4
12:25 1015 29.97 844 24.92 25.4 77.6 21 2 35.6
12:30 1015 29.97 844 24.92 25.7 78.3 21 2.2 35.9
12:35 1015 29.97 844 24.92 26.1 78.9 20 1.9 35.4
12:40 1015 29.97 844 24.92 25.9 78.7 21 2.4 36.3
12:45 1015 29.97 844 24.92 26.4 79.4 21 2.7 36.8
12:50 1015 29.97 844 24.92 26.6 79.8 19 1.5 34.8
12:55 1015 29.97 844 24.92 25.8 78.4 21 2.1 35.8
13:00 1015 29.97 844 24.92 25.9 78.5 22 2.5 36.6
13:05 1015 29.97 844 24.92 25.8 78.5 22 2.9 37.2
13:10 1015 29.97 844 24.92 25.9 78.6 21 2 35.6
13:15 1015 29.97 844 24.92 26.5 79.8 21 2.5 36.5
13:20 1015 29.97 844 24.92 26 78.7 23 3.3 37.9
13:25 1015 29.97 844 24.92 25.6 78.1 22 2.4 36.4
13:30 1015 29.97 844 24.92 25.6 78.1 22 2.8 37
13:35 1015 29.97 844 24.92 25.6 78.1 22 2.5 36.5
13:40 1014 29.94 844 24.92 25.8 78.4 22 2.8 37
13:45 1014 29.94 844 24.92 25.8 78.4 21 2.2 36
13:50 1014 29.94 844 24.92 25.7 78.2 21 1.9 35.4
13:55 1014 29.94 843 24.89 25.7 78.3 22 2.6 36.6
14:00 1014 29.94 843 24.89 25.9 78.7 20 1.7 35.1
14:05 1014 29.94 843 24.89 25.8 78.5 19 0.7 33.3
14:10 1014 29.94 843 24.89 25.6 78.1 20 1.3 34.4
14:15 1014 29.94 843 24.89 25.5 77.8 21 1.5 34.7
14:20 1014 29.94 843 24.89 25.4 77.7 20 1.1 34
14:25 1014 29.94 843 24.89 26.1 79 18 -0 32
14:30 1014 29.94 843 24.89 26.4 79.5 17 -0.1 31.9
14:35 1014 29.94 843 24.89 26.5 79.7 18 0.7 33.3
14:40 1014 29.94 843 24.89 26.6 80 22 3.6 38.5
14:45 1014 29.94 843 24.89 26.2 79.1 21 2.6 36.6
14:50 1014 29.94 843 24.89 25.8 78.4 22 3 37.5
14:55 1014 29.94 843 24.89 25.8 78.4 24 3.8 38.8
15:00 1014 29.94 843 24.89 25.9 78.6 25 4.5 40
15:05 1014 29.94 843 24.89 25.4 77.7 25 4.1 39.4
15:10 1014 29.94 843 24.89 25.2 77.3 25 4.2 39.6
15:15 1014 29.94 843 24.89 24.9 76.8 24 3.1 37.6
15:20 1014 29.94 843 24.89 25 77 23 2.9 37.2
15:25 1014 29.94 843 24.89 25.1 77.2 23 2.6 36.7
15:30 1014 29.94 843 24.89 25.1 77.2 23 2.8 37
15:35 1014 29.94 843 24.89 24.9 76.9 23 2.6 36.7
15:40 1014 29.94 843 24.89 24.7 76.5 23 2.3 36.2
15:45 1014 29.94 843 24.89 24.9 76.9 22 2.2 36
15:50 1014 29.94 843 24.89 25.1 77.1 22 2 35.6
15:55 1014 29.94 843 24.89 25.6 78.1 21 2.2 35.9
16:00 1014 29.94 843 24.89 25.8 78.5 21 2.3 36.1
16:05 1014 29.94 843 24.89 25.5 77.9 22 2.6 36.6
16:10 1014 29.94 843 24.89 25.4 77.7 21 1.6 34.8
16:15 1014 29.94 843 24.89 25.1 77.1 22 1.9 35.3
16:20 1014 29.94 843 24.89 25 77 22 2 35.5
16:25 1014 29.94 843 24.89 25.5 78 23 3.3 37.9
16:30 1014 29.94 843 24.89 25.2 77.3 24 3.4 38.1
16:35 1014 29.94 843 24.89 24.6 76.3 24 3.1 37.7
16:40 1014 29.94 843 24.89 24.1 75.5 25 3.2 37.7
16:45 1014 29.94 843 24.89 24 75.3 25 2.9 37.2
16:50 1014 29.94 843 24.89 23.4 74.1 25 2.7 36.8
16:55 1014 29.94 843 24.89 23 73.4 26 2.6 36.8
17:00 1014 29.94 843 24.89 22.7 72.9 26 2.4 36.4
17:05 1014 29.94 843 24.89 22.3 72.2 27 2.7 36.8
17:10 1014 29.94 844 24.92 22.3 72.2 28 2.9 37.3
17:15 1014 29.94 844 24.92 22.3 72.2 28 3 37.4
17:20 1015 29.97 844 24.92 22.5 72.5 28 3.1 37.6
17:25 1015 29.97 844 24.92 22.3 72.2 27 2.7 36.9
17:30 1015 29.97 844 24.92 22 71.6 29 3.3 38
17:35 1015 29.97 844 24.92 21.8 71.3 28 2.4 36.4
17:40 1015 29.97 844 24.92 21.7 71 28 2.6 36.6
17:45 1015 29.97 844 24.92 21.7 71 29 3 37.4
17:50 1015 29.97 844 24.92 21.6 70.9 29 2.8 37
17:55 1015 29.97 844 24.92 21.5 70.8 31 3.7 38.7
18:00 1015 29.97 845 24.95 21.3 70.3 30 3 37.5
18:05 1015 29.97 845 24.95 21.2 70.2 30 3.2 37.7
18:10 1015 29.97 845 24.95 20.9 69.7 31 3.1 37.6
18:15 1015 29.97 845 24.95 20.8 69.5 30 2.9 37.2
18:20 1015 29.97 845 24.95 20.8 69.4 30 2.8 37
18:25 1016 30 845 24.95 20.7 69.2 31 3 37.4
18:30 1016 30 845 24.95 20.5 68.9 31 3 37.4
18:35 1016 30 845 24.95 20.4 68.7 31 3 37.3
18:40 1016 30 845 24.95 20.3 68.6 32 3.1 37.5
18:45 1016 30 845 24.95 20.3 68.5 31 2.9 37.2
18:50 1016 30 845 24.95 20.1 68.2 32 3 37.3
18:55 1016 30 845 24.95 19.9 67.9 32 2.8 37
19:00 1016 30 845 24.95 19.9 67.7 32 2.7 36.9
19:05 1016 30 845 24.95 19.8 67.6 32 2.7 36.9
19:10 1016 30 845 24.95 19.7 67.5 32 2.6 36.7
19:15 1016 30 845 24.95 19.6 67.3 32 2.5 36.5
19:20 1016 30 845 24.95 19.5 67.1 32 2.5 36.4
19:25 1016 30 845 24.95 19.4 67 32 2.3 36.2
19:30 1016 30 845 24.95 19.4 66.8 32 2.2 35.9
19:35 1016 30 845 24.95 19.4 66.9 32 2.3 36.1
19:40 1016 30 845 24.95 19.3 66.8 31 2.1 35.8
19:45 1016 30 845 24.95 19.3 66.7 31 2 35.7
19:50 1016 30 845 24.95 19.2 66.6 32 2.3 36.1
19:55 1016 30 845 24.95 19.1 66.5 32 2.2 36
20:00 1016 30 845 24.95 19.1 66.4 32 2.1 35.7
20:05 1016 30 845 24.95 18.9 66.1 33 2.6 36.7
20:10 1016 30 845 24.95 18.9 65.9 32 2.1 35.8
20:15 1016 30 845 24.95 18.8 65.8 32 2 35.6
20:20 1016 30 845 24.95 18.7 65.6 32 1.8 35.3
20:25 1016 30 845 24.95 18.7 65.6 32 2 35.5
20:30 1016 30 846 24.98 18.6 65.6 32 1.9 35.4
20:35 1016 30 846 24.98 18.6 65.5 33 2.1 35.9
20:40 1016 30 846 24.98 18.3 64.9 39 4.1 39.4
20:45 1016 30 846 24.98 17.6 63.7 40 4.1 39.4
20:50 1016 30 846 24.98 17.4 63.2 41 4.2 39.6
20:55 1016 30 846 24.98 17.2 62.9 42 4.4 39.9
21:00 1017 30.03 846 24.98 16.9 62.4 46 5.3 41.6
21:05 1017 30.03 846 24.98 16.6 61.9 44 4.6 40.2
21:10 1017 30.03 846 24.98 16.5 61.8 44 4.2 39.6
21:15 1017 30.03 846 24.98 16.6 61.8 42 3.7 38.7
21:20 1017 30.03 846 24.98 16.6 61.9 43 4.1 39.4
21:25 1017 30.03 846 24.98 16.6 62 43 4.2 39.6
21:30 1017 30.03 846 24.98 16.6 61.9 44 4.4 39.9
21:35 1017 30.03 846 24.98 16.6 61.9 44 4.5 40.2
21:40 1017 30.03 846 24.98 16.6 61.9 39 2.8 37.1
21:45 1017 30.03 846 24.98 16.9 62.4 38 2.6 36.7
21:50 1017 30.03 846 24.98 17.3 63.2 35 1.9 35.5
21:55 1017 30.03 846 24.98 17.6 63.7 33 1.5 34.6
22:00 1017 30.03 846 24.98 17.7 63.8 34 1.5 34.8
22:05 1017 30.03 846 24.98 17.6 63.7 33 1.3 34.4
22:10 1017 30.03 846 24.98 17.5 63.5 33 1.3 34.3
22:15 1017 30.03 846 24.98 17.4 63.2 33 1.2 34.1
22:20 1017 30.03 846 24.98 17.2 62.9 34 1.2 34.1
22:25 1017 30.03 846 24.98 17 62.7 34 1.3 34.4
22:30 1017 30.03 846 24.98 17 62.5 33 0.8 33.5
22:35 1017 30.03 847 25.01 17 62.6 32 0.2 32.4
22:40 1017 30.03 847 25.01 17 62.6 32 0.2 32.4
22:45 1017 30.03 847 25.01 16.9 62.5 32 0.1 32.2
22:50 1017 30.03 847 25.01 16.9 62.4 32 0.4 32.6
22:55 1017 30.03 847 25.01 16.8 62.2 33 0.7 33.2
23:00 1018 30.06 847 25.01 16.7 62 34 0.7 33.2
23:05 1018 30.06 847 25.01 16.6 61.8 33 0.2 32.3
23:10 1018 30.06 847 25.01 16.6 61.9 32 0.1 32.1
23:15 1018 30.06 847 25.01 16.6 61.9 32 -0.1 31.9
23:20 1018 30.06 847 25.01 16.7 62 32 -0.1 31.9
23:25 1018 30.06 847 25.01 16.6 61.9 32 -0 32
23:30 1018 30.06 847 25.01 16.6 61.8 33 0.2 32.4
23:35 1018 30.06 847 25.01 16.6 61.8 32 0.1 32.1
23:40 1018 30.06 847 25.01 16.5 61.7 33 0.3 32.5
23:45 1018 30.06 847 25.01 16.4 61.6 33 0.2 32.4
23:50 1018 30.06 847 25.01 16.3 61.4 33 0.2 32.3
23:55 1018 30.06 847 25.01 16.3 61.3 33 -0 32
24:00 1018 30.06 847 25.01 16.2 61.2 33 0.2 32.4